This is the latest recevied weather packets stored in our database for station/object KB3GVC-13. If no packets are shown the sender has not sent any weather packets the latest 1 day(s).
| Time | Temp. | Humidity | Pressure | Rain* | Wind** | Luminosity | Snow |
|---|---|---|---|---|---|---|---|
| 1777986391 | 20.56° C | 56% | 1013.2 hPa | 0 mm | 0.45 m/s, 25° | - | - |
| 1777986089 | 20° C | 55% | 1013.3 hPa | 0 mm | 2.24 m/s, 288° | - | - |
| 1777985785 | 20° C | 56% | 1013.5 hPa | 0 mm | 1.79 m/s, 214° | - | - |
| 1777985482 | 20° C | 56% | 1013.3 hPa | 0 mm | 0.89 m/s, 160° | - | - |
| 1777985179 | 19.44° C | 57% | 1013.3 hPa | 0 mm | 0.89 m/s, 257° | - | - |
| 1777984875 | 19.44° C | 56% | 1013 hPa | 0 mm | 2.68 m/s, 266° | - | - |
| 1777984571 | 20° C | 58% | 1013 hPa | 0 mm | 1.34 m/s, 143° | - | - |
| 1777984268 | 19.44° C | 59% | 1012.9 hPa | 0 mm | 0.89 m/s, 118° | - | - |
| 1777983965 | 19.44° C | 60% | 1012.9 hPa | 0 mm | 0 m/s | - | - |
| 1777983662 | 19.44° C | 59% | 1012.9 hPa | 0 mm | 0.45 m/s, 102° | - | - |
| 1777983358 | 18.89° C | 61% | 1013.1 hPa | 0 mm | 0.89 m/s, 207° | - | - |
| 1777983055 | 18.89° C | 61% | 1013 hPa | 0 mm | 0.89 m/s, 178° | - | - |
| 1777982752 | 18.33° C | 62% | 1013 hPa | 0 mm | 0.89 m/s, 186° | - | - |
| 1777982447 | 18.33° C | 63% | 1012.8 hPa | 0 mm | 0.89 m/s, 291° | - | - |
| 1777982142 | 17.78° C | 63% | 1013 hPa | 0 mm | 0.89 m/s, 303° | - | - |
| 1777981839 | 17.78° C | 64% | 1012.9 hPa | 0 mm | 1.34 m/s, 284° | - | - |
| 1777981536 | 17.78° C | 65% | 1012.9 hPa | 0 mm | 0.45 m/s, 249° | - | - |
| 1777981233 | 17.22° C | 66% | 1012.8 hPa | 0 mm | 0.89 m/s, 184° | - | - |
| 1777980929 | 17.22° C | 66% | 1012.8 hPa | 0 mm | 0.89 m/s, 300° | - | - |
| 1777980626 | 17.22° C | 67% | 1012.9 hPa | 0 mm | 0.89 m/s, 177° | - | - |
| 1777980323 | 16.67° C | 67% | 1012.9 hPa | 0 mm | 1.34 m/s, 243° | - | - |
| 1777980021 | 16.67° C | 68% | 1012.9 hPa | 0 mm | 0 m/s | - | - |
| 1777979720 | 16.67° C | 69% | 1012.8 hPa | 0 mm | 0.45 m/s, 293° | - | - |
| 1777979416 | 16.11° C | 69% | 1012.7 hPa | 0 mm | 0.45 m/s, 220° | - | - |
| 1777979113 | 16.11° C | 70% | 1012.6 hPa | 0 mm | 0.45 m/s, 328° | - | - |
* Rain latest hour (hover to see other rain measurements)
** Current wind speed in m/s (hover to see current wind gust speed)